createdAt,value
2023-03-06T00:01:53.269Z,94056.00
2023-03-06T00:05:53.450Z,94056.00
2023-03-06T00:09:53.447Z,94054.00
2023-03-06T00:13:53.536Z,94058.00
2023-03-06T00:17:53.512Z,94058.00
2023-03-06T00:21:53.545Z,94054.00
2023-03-06T00:25:53.540Z,94050.00
2023-03-06T00:29:53.561Z,94050.00
2023-03-06T00:33:53.591Z,94042.00
2023-03-06T00:37:53.617Z,94042.00
2023-03-06T00:41:53.585Z,94038.00
2023-03-06T00:45:53.674Z,94034.00
2023-03-06T00:49:53.632Z,94032.00
2023-03-06T00:53:53.670Z,94027.00
2023-03-06T00:57:53.648Z,94023.00
2023-03-06T01:01:53.699Z,94021.00
2023-03-06T01:05:53.614Z,94017.00
2023-03-06T01:09:53.557Z,94015.00
2023-03-06T01:13:53.526Z,94011.00
2023-03-06T01:17:53.487Z,94001.00
2023-03-06T01:21:53.444Z,93997.00
2023-03-06T01:25:53.400Z,93993.00
2023-03-06T01:29:53.354Z,93989.00
2023-03-06T01:33:53.326Z,93980.00
2023-03-06T01:37:53.335Z,93980.00
2023-03-06T01:41:53.251Z,93978.00
2023-03-06T01:45:53.254Z,93976.00
2023-03-06T01:49:53.196Z,93970.00
2023-03-06T01:53:53.223Z,93962.00
2023-03-06T01:57:53.242Z,93956.00
2023-03-06T02:01:53.320Z,93950.00
2023-03-06T02:05:53.345Z,93946.00
2023-03-06T02:09:53.463Z,93940.00
2023-03-06T02:13:53.395Z,93936.00
2023-03-06T02:17:53.361Z,93932.00
2023-03-06T02:21:53.337Z,93930.00
2023-03-06T02:25:53.286Z,93923.00
2023-03-06T02:29:53.232Z,93919.00
2023-03-06T02:33:53.211Z,93915.00
2023-03-06T02:37:53.173Z,93911.00
2023-03-06T02:41:53.138Z,93907.00
2023-03-06T02:45:53.159Z,93901.00
2023-03-06T02:49:53.065Z,93897.00
2023-03-06T02:53:53.036Z,93893.00
2023-03-06T02:57:52.979Z,93887.00
2023-03-06T03:01:53.050Z,93878.00
2023-03-06T03:05:52.933Z,93876.00
2023-03-06T03:09:52.840Z,93874.00
2023-03-06T03:13:52.861Z,93866.00
2023-03-06T03:17:52.799Z,93866.00
2023-03-06T03:21:52.788Z,93856.00
2023-03-06T03:25:52.732Z,93852.00
2023-03-06T03:29:52.696Z,93848.00
2023-03-06T03:33:52.675Z,93840.00
2023-03-06T03:37:52.773Z,93840.00
2023-03-06T03:41:52.878Z,93831.00
2023-03-06T03:45:52.975Z,93823.00
2023-03-06T03:49:53.038Z,93819.00
2023-03-06T03:53:53.138Z,93815.00
2023-03-06T03:57:53.262Z,93807.00
2023-03-06T04:01:53.412Z,93803.00
2023-03-06T04:05:53.499Z,93797.00
2023-03-06T04:09:53.550Z,93789.00
2023-03-06T04:13:53.629Z,93789.00
2023-03-06T04:17:53.759Z,93789.00
2023-03-06T04:21:53.865Z,93786.00
2023-03-06T04:25:53.953Z,93772.00
2023-03-06T04:29:54.084Z,93774.00
2023-03-06T04:33:54.207Z,93770.00
2023-03-06T04:37:54.322Z,93766.00
2023-03-06T04:41:54.436Z,93764.00
2023-03-06T04:45:54.569Z,93766.00
2023-03-06T04:49:54.774Z,93764.00
2023-03-06T04:53:54.745Z,93764.00
2023-03-06T04:57:54.910Z,93756.00
2023-03-06T05:01:55.057Z,93768.00
2023-03-06T05:05:55.159Z,93760.00
2023-03-06T05:09:55.280Z,93756.00
2023-03-06T05:13:55.366Z,93756.00
2023-03-06T05:17:55.471Z,93754.00
2023-03-06T05:21:55.559Z,93746.00
2023-03-06T05:25:55.648Z,93746.00
2023-03-06T05:29:55.808Z,93748.00
2023-03-06T05:33:55.936Z,93738.00
2023-03-06T05:37:56.098Z,93733.00
2023-03-06T05:41:56.215Z,93740.00
2023-03-06T05:45:56.425Z,93736.00
2023-03-06T05:49:56.523Z,93740.00
2023-03-06T05:53:56.698Z,93738.00
2023-03-06T05:57:56.791Z,93738.00
2023-03-06T06:01:57.042Z,93735.00
2023-03-06T06:05:57.087Z,93682.00
2023-03-06T06:09:57.215Z,93687.00
2023-03-06T06:13:57.365Z,93691.00
2023-03-06T06:17:57.525Z,93697.00
2023-03-06T06:21:57.572Z,93699.00
2023-03-06T06:25:57.719Z,93699.00
2023-03-06T06:29:57.897Z,93742.00
2023-03-06T06:33:57.892Z,93744.00
2023-03-06T06:37:57.999Z,93742.00
2023-03-06T06:42:15.463Z,93744.00
2023-03-06T06:46:18.760Z,93754.00
2023-03-06T06:49:59.046Z,93754.00
2023-03-06T06:53:58.068Z,93760.00
2023-03-06T06:57:57.990Z,93764.00
2023-03-06T07:01:58.007Z,93760.00
2023-03-06T07:05:57.878Z,93762.00
2023-03-06T07:09:57.898Z,93754.00
2023-03-06T07:13:57.816Z,93754.00
2023-03-06T07:17:57.900Z,93756.00
2023-03-06T07:21:57.852Z,93748.00
2023-03-06T07:25:57.906Z,93758.00
2023-03-06T07:29:57.970Z,93758.00
2023-03-06T07:33:58.028Z,93770.00
2023-03-06T07:37:58.052Z,93752.00
2023-03-06T07:41:58.112Z,93766.00
2023-03-06T07:45:59.958Z,93770.00
2023-03-06T07:49:58.133Z,93770.00
2023-03-06T07:53:58.181Z,93770.00
2023-03-06T07:57:58.269Z,93772.00
2023-03-06T08:01:58.286Z,93774.00
2023-03-06T08:05:58.390Z,93776.00
2023-03-06T08:09:58.461Z,93778.00
2023-03-06T08:13:58.525Z,93774.00
2023-03-06T08:17:58.578Z,93770.00
2023-03-06T08:21:58.657Z,93774.00
2023-03-06T08:25:58.716Z,93768.00
2023-03-06T08:29:58.746Z,93772.00
2023-03-06T08:33:58.946Z,93762.00
2023-03-06T08:37:58.989Z,93774.00
2023-03-06T08:41:59.495Z,93768.00
2023-03-06T08:45:58.919Z,93772.00
2023-03-06T08:50:00.598Z,93772.00
2023-03-06T08:57:12.802Z,93764.00
2023-03-06T09:01:12.807Z,93764.00
2023-03-06T09:05:12.758Z,93760.00
2023-03-06T09:09:12.708Z,93772.00
2023-03-06T09:13:12.665Z,93766.00
2023-03-06T09:17:12.633Z,93772.00
2023-03-06T09:21:12.550Z,93774.00
2023-03-06T09:25:12.536Z,93756.00
2023-03-06T09:29:12.562Z,93748.00
2023-03-06T09:33:12.474Z,93748.00
2023-03-06T09:37:12.435Z,93740.00
2023-03-06T09:41:12.869Z,93746.00
2023-03-06T09:45:12.391Z,93764.00
2023-03-06T09:49:12.855Z,93738.00
2023-03-06T09:53:12.254Z,93740.00
2023-03-06T09:57:12.248Z,93735.00
2023-03-06T10:01:12.176Z,93736.00
2023-03-06T10:05:12.954Z,93754.00
2023-03-06T10:09:12.844Z,93750.00
2023-03-06T10:13:12.669Z,93746.00
2023-03-06T10:17:12.827Z,93748.00
2023-03-06T10:21:19.125Z,93736.00
2023-03-06T10:25:13.878Z,93740.00
2023-03-06T10:29:12.851Z,93717.00
2023-03-06T10:33:12.873Z,93709.00
2023-03-06T10:37:12.881Z,93701.00
2023-03-06T10:41:12.826Z,93713.00
2023-03-06T10:45:12.803Z,93713.00
2023-03-06T10:49:12.760Z,93705.00
2023-03-06T10:53:12.687Z,93672.00
2023-03-06T10:57:12.646Z,93664.00
2023-03-06T11:01:12.649Z,93658.00
2023-03-06T11:05:12.605Z,93646.00
2023-03-06T11:09:23.268Z,93642.00
2023-03-06T11:13:12.559Z,93632.00
2023-03-06T11:17:12.478Z,93652.00
2023-03-06T11:21:12.474Z,93621.00
2023-03-06T11:25:12.544Z,93597.00
2023-03-06T11:29:14.187Z,93595.00
2023-03-06T11:33:20.466Z,93576.00
2023-03-06T11:37:12.411Z,93570.00
2023-03-06T11:41:12.394Z,93570.00
2023-03-06T11:45:12.358Z,93564.00
2023-03-06T11:49:12.520Z,93560.00
2023-03-06T11:53:12.682Z,93548.00
2023-03-06T11:57:12.745Z,93539.00
2023-03-06T12:01:12.778Z,93529.00
2023-03-06T12:05:12.844Z,93531.00
2023-03-06T12:09:12.996Z,93527.00
2023-03-06T12:13:13.340Z,93517.00
2023-03-06T12:17:13.411Z,93513.00
2023-03-06T12:21:13.587Z,93513.00
2023-03-06T12:25:13.828Z,93513.00
2023-03-06T12:29:13.985Z,93511.00
2023-03-06T12:33:14.232Z,93509.00
2023-03-06T12:37:14.197Z,93499.00
2023-03-06T12:41:14.146Z,93497.00
2023-03-06T12:45:14.080Z,93491.00
2023-03-06T12:49:23.027Z,93488.00
2023-03-06T12:53:15.064Z,93488.00
2023-03-06T12:57:13.976Z,93480.00
2023-03-06T13:01:14.020Z,93476.00
2023-03-06T13:05:14.516Z,93486.00
2023-03-06T13:09:14.256Z,93464.00
2023-03-06T13:13:14.286Z,93458.00
2023-03-06T13:17:14.473Z,93484.00
2023-03-06T13:21:14.441Z,93478.00
2023-03-06T13:25:14.377Z,93460.00
2023-03-06T13:29:14.296Z,93460.00
2023-03-06T13:33:14.326Z,93458.00
2023-03-06T13:37:14.273Z,93454.00
2023-03-06T13:41:14.475Z,93448.00
2023-03-06T13:45:14.256Z,93443.00
2023-03-06T13:49:14.183Z,93444.00
2023-03-06T13:53:14.155Z,93446.00
2023-03-06T13:57:14.067Z,93443.00
2023-03-06T14:01:14.102Z,93456.00
2023-03-06T14:05:14.047Z,93452.00
2023-03-06T14:09:14.013Z,93454.00
2023-03-06T14:13:13.935Z,93472.00
2023-03-06T14:17:13.889Z,93450.00
2023-03-06T14:21:13.833Z,93474.00
2023-03-06T14:25:14.123Z,93450.00
2023-03-06T14:29:14.243Z,93452.00
2023-03-06T14:33:14.312Z,93464.00
2023-03-06T14:37:14.394Z,93466.00
2023-03-06T14:41:14.428Z,93476.00
2023-03-06T14:45:14.409Z,93466.00
2023-03-06T14:49:14.414Z,93490.00
2023-03-06T14:53:14.368Z,93490.00
2023-03-06T14:57:14.372Z,93495.00
2023-03-06T15:01:14.372Z,93491.00
2023-03-06T15:05:15.015Z,93499.00
2023-03-06T15:09:14.425Z,93501.00
2023-03-06T15:13:14.488Z,93503.00
2023-03-06T15:17:14.509Z,93501.00
2023-03-06T15:21:14.598Z,93505.00
2023-03-06T15:25:14.625Z,93458.00
2023-03-06T15:29:14.682Z,93460.00
2023-03-06T15:33:14.777Z,93466.00
2023-03-06T15:37:14.928Z,93466.00
2023-03-06T15:41:14.894Z,93474.00
2023-03-06T15:45:15.024Z,93470.00
2023-03-06T15:49:15.052Z,93468.00
2023-03-06T15:53:15.120Z,93470.00
2023-03-06T15:57:15.260Z,93482.00
2023-03-06T16:01:15.340Z,93484.00
2023-03-06T16:05:15.353Z,93482.00
2023-03-06T16:09:15.446Z,93482.00
2023-03-06T16:13:15.563Z,93482.00
2023-03-06T16:17:15.693Z,93491.00
2023-03-06T16:21:15.771Z,93488.00
2023-03-06T16:25:15.855Z,93493.00
2023-03-06T16:29:15.938Z,93499.00
2023-03-06T16:33:16.108Z,93501.00
2023-03-06T16:37:16.237Z,93507.00
2023-03-06T16:41:16.302Z,93503.00
2023-03-06T16:45:16.443Z,93503.00
2023-03-06T16:49:16.617Z,93509.00
2023-03-06T16:53:16.771Z,93517.00
2023-03-06T16:57:16.894Z,93523.00
2023-03-06T17:01:17.088Z,93529.00
2023-03-06T17:05:17.257Z,93527.00
2023-03-06T17:09:17.391Z,93529.00
2023-03-06T17:13:17.557Z,93541.00
2023-03-06T17:17:17.749Z,93542.00
2023-03-06T17:21:17.876Z,93546.00
2023-03-06T17:25:18.058Z,93548.00
2023-03-06T17:29:18.261Z,93560.00
2023-03-06T17:33:18.413Z,93566.00
2023-03-06T17:37:18.662Z,93572.00
2023-03-06T17:41:18.774Z,93574.00
2023-03-06T17:45:18.969Z,93578.00
2023-03-06T17:49:19.191Z,93586.00
2023-03-06T17:53:19.319Z,93590.00
2023-03-06T17:57:19.551Z,93592.00
2023-03-06T18:01:19.839Z,93593.00
2023-03-06T18:05:20.013Z,93593.00
2023-03-06T18:09:20.247Z,93597.00
2023-03-06T18:13:20.428Z,93607.00
2023-03-06T18:17:20.654Z,93615.00
2023-03-06T18:21:20.840Z,93613.00
2023-03-06T18:25:20.870Z,93609.00
2023-03-06T18:29:20.794Z,93615.00
2023-03-06T18:33:20.762Z,93613.00
2023-03-06T18:37:20.794Z,93623.00
2023-03-06T18:41:20.671Z,93627.00
2023-03-06T18:45:20.652Z,93662.00
2023-03-06T18:49:20.620Z,93660.00
2023-03-06T18:53:20.559Z,93660.00
2023-03-06T18:57:20.513Z,93634.00
2023-03-06T19:01:20.629Z,93691.00
2023-03-06T19:05:20.597Z,93691.00
2023-03-06T19:09:20.556Z,93697.00
2023-03-06T19:13:20.499Z,93703.00
2023-03-06T19:17:20.466Z,93711.00
2023-03-06T19:21:20.453Z,93713.00
2023-03-06T19:25:20.438Z,93711.00
2023-03-06T19:29:20.429Z,93711.00
2023-03-06T19:33:20.322Z,93658.00
2023-03-06T19:37:20.310Z,93664.00
2023-03-06T19:41:20.276Z,93666.00
2023-03-06T19:45:20.237Z,93674.00
2023-03-06T19:49:20.145Z,93678.00
2023-03-06T19:53:20.139Z,93678.00
2023-03-06T19:57:20.140Z,93682.00
2023-03-06T20:01:20.144Z,93682.00
2023-03-06T20:05:20.051Z,93680.00
2023-03-06T20:09:19.982Z,93682.00
2023-03-06T20:13:19.969Z,93682.00
2023-03-06T20:17:19.932Z,93682.00
2023-03-06T20:21:19.886Z,93684.00
2023-03-06T20:25:19.864Z,93687.00
2023-03-06T20:29:19.913Z,93691.00
2023-03-06T20:33:19.894Z,93693.00
2023-03-06T20:37:19.923Z,93697.00
2023-03-06T20:41:19.881Z,93703.00
2023-03-06T20:45:19.975Z,93703.00
2023-03-06T20:49:19.966Z,93707.00
2023-03-06T20:53:19.989Z,93713.00
2023-03-06T20:57:19.960Z,93713.00
2023-03-06T21:01:20.066Z,93713.00
2023-03-06T21:05:20.017Z,93719.00
2023-03-06T21:09:20.077Z,93713.00
2023-03-06T21:13:20.015Z,93711.00
2023-03-06T21:17:20.094Z,93705.00
2023-03-06T21:21:20.133Z,93701.00
2023-03-06T21:25:20.164Z,93699.00
2023-03-06T21:29:20.121Z,93701.00
2023-03-06T21:33:20.108Z,93701.00
2023-03-06T21:37:20.128Z,93695.00
2023-03-06T21:41:20.112Z,93697.00
2023-03-06T21:45:20.135Z,93697.00
2023-03-06T21:49:20.113Z,93691.00
2023-03-06T21:53:20.081Z,93691.00
2023-03-06T21:57:20.096Z,93687.00
2023-03-06T22:01:20.250Z,93684.00
2023-03-06T22:05:20.148Z,93678.00
2023-03-06T22:09:20.240Z,93674.00
2023-03-06T22:13:20.178Z,93672.00
2023-03-06T22:17:20.217Z,93676.00
2023-03-06T22:21:20.230Z,93674.00
2023-03-06T22:25:20.264Z,93674.00
2023-03-06T22:29:20.281Z,93672.00
2023-03-06T22:33:20.357Z,93668.00
2023-03-06T22:37:20.366Z,93670.00
2023-03-06T22:41:20.463Z,93672.00
2023-03-06T22:45:20.600Z,93668.00
2023-03-06T22:49:20.547Z,93662.00
2023-03-06T22:53:20.636Z,93660.00
2023-03-06T22:57:20.675Z,93660.00
2023-03-06T23:01:20.973Z,93660.00
2023-03-06T23:05:20.943Z,93658.00
2023-03-06T23:09:20.969Z,93658.00
2023-03-06T23:13:21.098Z,93660.00
2023-03-06T23:17:21.006Z,93652.00
2023-03-06T23:21:21.046Z,93646.00
2023-03-06T23:25:21.026Z,93650.00
2023-03-06T23:29:21.103Z,93654.00
2023-03-06T23:33:21.175Z,93650.00
2023-03-06T23:37:21.149Z,93652.00
2023-03-06T23:41:21.163Z,93646.00
2023-03-06T23:45:21.262Z,93646.00
2023-03-06T23:49:22.033Z,93646.00
2023-03-06T23:53:21.273Z,93644.00
2023-03-06T23:57:21.297Z,93646.00
